createdAt,value
2022-10-15T00:00:42.024Z,100010.41
2022-10-15T00:03:19.014Z,100005.19
2022-10-15T00:05:56.053Z,100011.88
2022-10-15T00:08:33.190Z,100014.31
2022-10-15T00:11:16.406Z,100012.91
2022-10-15T00:13:54.549Z,100006.34
2022-10-15T00:16:32.875Z,100001.59
2022-10-15T00:19:10.760Z,100002.78
2022-10-15T00:21:47.972Z,100011.81
2022-10-15T00:24:26.430Z,100009.22
2022-10-15T00:27:03.570Z,99999.97
2022-10-15T00:29:42.118Z,100008.41
2022-10-15T00:32:19.325Z,100001.06
2022-10-15T00:34:57.875Z,99997.72
2022-10-15T00:37:36.409Z,99989.81
2022-10-15T00:40:15.296Z,99995.63
2022-10-15T00:42:53.634Z,99991.47
2022-10-15T00:45:30.670Z,99987.03
2022-10-15T00:48:07.698Z,99982.97
2022-10-15T00:50:44.747Z,99982.31
2022-10-15T00:53:23.394Z,99974.59
2022-10-15T00:56:00.787Z,99974.22
2022-10-15T00:58:39.008Z,99978.69
2022-10-15T01:01:16.077Z,99981.41
2022-10-15T01:03:54.744Z,99971.88
2022-10-15T01:06:33.274Z,99970.56
2022-10-15T01:09:12.052Z,99970.13
2022-10-15T01:11:51.316Z,99972.66
2022-10-15T01:15:00.489Z,99976.59
2022-10-15T01:17:50.440Z,99970.28
2022-10-15T01:20:31.213Z,99968.66
2022-10-15T01:23:49.282Z,99977.34
2022-10-15T01:26:36.069Z,99968.81
2022-10-15T01:29:45.512Z,99968.81
2022-10-15T01:32:25.480Z,99980.13
2022-10-15T01:35:03.270Z,99969.78
2022-10-15T01:37:52.867Z,99971.22
2022-10-15T01:40:51.343Z,99963.47
2022-10-15T01:43:31.225Z,99962.31
2022-10-15T01:46:07.453Z,99965.84
2022-10-15T01:48:35.142Z,99969.66
2022-10-15T01:51:03.983Z,99970.09
2022-10-15T01:53:34.183Z,99973.84
2022-10-15T01:56:04.568Z,99971.53
2022-10-15T01:58:32.509Z,99961.03
2022-10-15T02:00:59.894Z,99968.22
2022-10-15T02:03:27.585Z,99962.47
2022-10-15T02:05:59.611Z,99972.09
2022-10-15T02:08:56.549Z,99975.41
2022-10-15T02:11:24.200Z,99976.34
2022-10-15T02:14:04.131Z,99969.09
2022-10-15T02:16:35.688Z,99960.19
2022-10-15T02:19:18.798Z,99967.00
2022-10-15T02:22:18.816Z,99968.94
2022-10-15T02:24:54.556Z,99973.34
2022-10-15T02:27:23.745Z,99968.53
2022-10-15T02:29:52.747Z,99973.50
2022-10-15T02:32:21.268Z,99970.37
2022-10-15T02:34:49.502Z,99960.59
2022-10-15T02:37:19.109Z,99953.84
2022-10-15T02:39:46.542Z,99956.84
2022-10-15T02:42:18.069Z,99962.34
2022-10-15T02:44:45.414Z,99948.16
2022-10-15T02:47:12.878Z,99948.75
2022-10-15T02:49:41.200Z,99957.03
2022-10-15T02:52:08.777Z,99950.50
2022-10-15T02:54:36.273Z,99957.38
2022-10-15T02:57:03.905Z,99959.41
2022-10-15T02:59:31.292Z,99953.03
2022-10-15T03:01:59.157Z,99957.34
2022-10-15T03:04:27.128Z,99950.75
2022-10-15T03:06:55.112Z,99947.72
2022-10-15T03:09:23.127Z,99940.22
2022-10-15T03:11:50.754Z,99938.63
2022-10-15T03:14:18.138Z,99936.47
2022-10-15T03:16:45.636Z,99941.59
2022-10-15T03:19:13.674Z,99944.12
2022-10-15T03:21:41.099Z,99941.16
2022-10-15T03:24:09.341Z,99941.88
2022-10-15T03:26:37.132Z,99936.78
2022-10-15T03:29:04.803Z,99935.06
2022-10-15T03:31:32.652Z,99935.84
2022-10-15T03:34:01.185Z,99946.72
2022-10-15T03:36:28.679Z,99940.22
2022-10-15T03:38:56.642Z,99941.41
2022-10-15T03:41:24.258Z,99947.22
2022-10-15T03:43:51.920Z,99956.63
2022-10-15T03:46:19.311Z,99951.62
2022-10-15T03:48:50.793Z,99946.50
2022-10-15T03:51:22.077Z,99943.50
2022-10-15T03:53:53.376Z,99944.00
2022-10-15T03:56:20.793Z,99958.06
2022-10-15T03:58:48.280Z,99949.44
2022-10-15T04:01:17.061Z,99948.75
2022-10-15T04:03:44.874Z,99955.75
2022-10-15T04:06:13.084Z,99945.69
2022-10-15T04:08:40.505Z,99933.81
2022-10-15T04:11:12.724Z,99936.72
2022-10-15T04:13:40.060Z,99935.97
2022-10-15T04:16:07.504Z,99932.16
2022-10-15T04:18:35.129Z,99930.69
2022-10-15T04:21:02.483Z,99933.59
2022-10-15T04:23:31.597Z,99938.56
2022-10-15T04:26:04.041Z,99936.59
2022-10-15T04:28:31.375Z,99936.12
2022-10-15T04:30:59.264Z,99934.41
2022-10-15T04:33:37.662Z,99945.03
2022-10-15T04:38:59.681Z,99949.47
2022-10-15T04:41:38.351Z,99945.84
2022-10-15T04:44:17.016Z,99946.47
2022-10-15T04:46:55.553Z,99944.81
2022-10-15T04:49:34.286Z,99940.22
2022-10-15T04:52:13.104Z,99939.50
2022-10-15T04:59:11.451Z,99943.09
2022-10-15T05:01:54.774Z,99942.28
2022-10-15T05:04:33.340Z,99948.03
2022-10-15T05:07:11.962Z,99954.69
2022-10-15T05:09:50.643Z,99948.44
2022-10-15T05:12:29.262Z,99941.47
2022-10-15T05:15:08.212Z,99953.78
2022-10-15T05:17:46.460Z,99950.72
2022-10-15T05:20:23.550Z,99946.56
2022-10-15T05:23:04.323Z,99951.00
2022-10-15T05:25:42.355Z,99956.31
2022-10-15T05:28:20.989Z,99958.94
2022-10-15T05:31:13.720Z,99957.44
2022-10-15T05:33:49.158Z,99957.44
2022-10-15T05:36:19.372Z,99960.84
2022-10-15T05:38:51.226Z,99957.03
2022-10-15T05:41:18.909Z,99952.12
2022-10-15T05:43:47.506Z,99939.34
2022-10-15T05:46:22.402Z,99945.56
2022-10-15T05:48:53.634Z,99947.72
2022-10-15T05:51:21.468Z,99950.22
2022-10-15T05:53:52.890Z,99953.03
2022-10-15T05:56:20.229Z,99944.72
2022-10-15T05:58:47.883Z,99956.91
2022-10-15T06:01:15.330Z,99950.69
2022-10-15T06:03:48.873Z,99945.00
2022-10-15T06:06:23.602Z,99946.31
2022-10-15T06:08:51.425Z,99954.22
2022-10-15T06:11:18.837Z,99961.84
2022-10-15T06:13:46.434Z,99970.25
2022-10-15T06:16:16.631Z,99976.50
2022-10-15T06:18:46.813Z,99974.12
2022-10-15T06:21:14.424Z,99973.59
2022-10-15T06:23:41.767Z,99970.75
2022-10-15T06:26:09.708Z,99974.72
2022-10-15T06:28:37.476Z,99977.41
2022-10-15T06:31:05.565Z,99975.56
2022-10-15T06:33:32.950Z,99976.53
2022-10-15T06:36:10.168Z,99977.91
2022-10-15T06:38:37.778Z,99984.53
2022-10-15T06:41:06.386Z,99980.47
2022-10-15T06:43:35.249Z,99980.38
2022-10-15T06:46:04.090Z,99985.03
2022-10-15T06:48:32.685Z,99990.44
2022-10-15T06:51:00.801Z,99985.69
2022-10-15T06:53:28.536Z,99991.56
2022-10-15T06:55:59.897Z,99987.69
2022-10-15T06:58:27.255Z,99992.16
2022-10-15T07:01:00.127Z,100002.09
2022-10-15T07:03:28.011Z,100006.69
2022-10-15T07:05:55.647Z,100004.47
2022-10-15T07:08:23.112Z,100001.50
2022-10-15T07:10:50.709Z,100005.12
2022-10-15T07:13:18.014Z,100008.81
2022-10-15T07:15:46.282Z,100006.59
2022-10-15T07:18:13.870Z,100006.72
2022-10-15T07:20:41.356Z,100005.19
2022-10-15T07:23:08.666Z,99998.88
2022-10-15T07:25:36.290Z,100007.03
2022-10-15T07:28:04.082Z,99992.47
2022-10-15T07:30:31.665Z,99994.00
2022-10-15T07:32:59.537Z,99984.91
2022-10-15T07:35:27.059Z,99985.91
2022-10-15T07:37:55.125Z,99984.00
2022-10-15T07:40:22.902Z,99985.53
2022-10-15T07:42:56.879Z,99986.41
2022-10-15T07:45:26.254Z,99986.75
2022-10-15T07:47:53.632Z,99990.88
2022-10-15T07:50:21.457Z,99984.34
2022-10-15T07:52:49.039Z,99986.75
2022-10-15T07:55:16.340Z,99982.66
2022-10-15T07:57:43.752Z,99987.16
2022-10-15T08:00:12.051Z,99987.63
2022-10-15T08:02:40.300Z,99995.84
2022-10-15T08:05:08.213Z,99999.22
2022-10-15T08:07:35.582Z,100005.31
2022-10-15T08:10:09.702Z,100001.91
2022-10-15T08:12:37.307Z,100017.84
2022-10-15T08:15:05.700Z,100019.41
2022-10-15T08:17:33.011Z,100010.75
2022-10-15T08:20:00.586Z,100007.28
2022-10-15T08:22:28.026Z,100004.50
2022-10-15T08:24:56.443Z,100011.19
2022-10-15T08:27:24.048Z,100010.78
2022-10-15T08:29:57.580Z,100008.59
2022-10-15T08:32:25.528Z,100011.25
2022-10-15T08:34:53.172Z,100009.28
2022-10-15T08:37:20.506Z,100009.22
2022-10-15T08:39:48.451Z,100016.44
2022-10-15T08:42:21.649Z,100008.66
2022-10-15T08:44:58.419Z,100004.28
2022-10-15T08:47:40.458Z,100011.34
2022-10-15T08:50:16.993Z,100013.44
2022-10-15T08:52:48.574Z,100001.88
2022-10-15T08:55:18.077Z,100008.06
2022-10-15T08:58:13.893Z,99996.50
2022-10-15T09:00:45.496Z,100002.28
2022-10-15T09:03:36.833Z,100004.28
2022-10-15T09:06:13.993Z,99997.34
2022-10-15T09:09:07.075Z,99986.59
2022-10-15T09:11:56.450Z,99987.97
2022-10-15T09:14:27.300Z,99990.34
2022-10-15T09:16:55.000Z,99997.75
2022-10-15T09:19:23.489Z,100010.66
2022-10-15T09:21:51.756Z,100008.47
2022-10-15T09:24:23.871Z,100013.75
2022-10-15T09:27:07.316Z,100019.97
2022-10-15T09:30:03.648Z,100018.59
2022-10-15T09:32:46.888Z,100012.84
2022-10-15T09:35:19.460Z,100012.66
2022-10-15T09:38:24.339Z,100017.56
2022-10-15T09:41:03.795Z,100008.09
2022-10-15T09:43:36.684Z,100009.38
2022-10-15T09:46:04.487Z,100003.69
2022-10-15T09:48:44.176Z,100008.66
2022-10-15T09:51:34.828Z,100001.44
2022-10-15T09:54:12.879Z,100012.84
2022-10-15T09:56:48.666Z,99996.09
2022-10-15T09:59:17.718Z,100000.44
2022-10-15T10:02:04.670Z,99993.84
2022-10-15T10:04:33.608Z,100000.63
2022-10-15T10:07:02.824Z,100000.66
2022-10-15T10:09:33.672Z,100011.25
2022-10-15T10:12:03.912Z,100002.87
2022-10-15T10:14:42.873Z,99990.81
2022-10-15T10:17:21.401Z,99988.50
2022-10-15T10:20:07.608Z,99985.25
2022-10-15T10:22:54.769Z,99990.09
2022-10-15T10:25:30.983Z,99992.38
2022-10-15T10:28:13.850Z,99984.81
2022-10-15T10:31:03.779Z,99985.66
2022-10-15T10:33:35.482Z,99979.47
2022-10-15T10:36:02.920Z,99972.31
2022-10-15T10:38:33.140Z,99970.53
2022-10-15T10:41:08.521Z,99963.97
2022-10-15T10:43:39.779Z,99965.19
2022-10-15T10:46:14.546Z,99953.66
2022-10-15T10:48:51.558Z,99951.06
2022-10-15T10:51:21.760Z,99938.84
2022-10-15T10:53:55.494Z,99938.59
2022-10-15T10:56:35.969Z,99945.53
2022-10-15T10:59:22.312Z,99947.31
2022-10-15T11:01:50.332Z,99947.13
2022-10-15T11:04:25.680Z,99946.84
2022-10-15T11:07:00.740Z,99945.84
2022-10-15T11:09:40.398Z,99938.69
2022-10-15T11:12:25.667Z,99938.16
2022-10-15T11:15:04.529Z,99933.03
2022-10-15T11:18:06.136Z,99925.66
2022-10-15T11:21:21.337Z,99927.41
2022-10-15T11:24:09.346Z,99921.28
2022-10-15T11:27:09.757Z,99909.28
2022-10-15T11:29:42.197Z,99908.00
2022-10-15T11:32:25.293Z,99899.66
2022-10-15T11:35:40.959Z,99900.63
2022-10-15T11:38:56.193Z,99897.28
2022-10-15T11:41:29.557Z,99882.91
2022-10-15T11:44:06.932Z,99889.75
2022-10-15T11:46:44.074Z,99883.72
2022-10-15T11:49:39.070Z,99886.84
2022-10-15T11:52:35.626Z,99881.44
2022-10-15T11:55:17.295Z,99879.00
2022-10-15T11:57:44.679Z,99880.25
2022-10-15T12:00:12.056Z,99891.00
2022-10-15T12:02:39.536Z,99891.34
2022-10-15T12:05:38.382Z,99890.56
2022-10-15T12:08:05.924Z,99880.75
2022-10-15T12:10:46.415Z,99878.84
2022-10-15T12:13:33.988Z,99870.84
2022-10-15T12:16:16.429Z,99870.28
2022-10-15T12:18:54.328Z,99868.94
2022-10-15T12:22:06.856Z,99868.50
2022-10-15T12:24:51.682Z,99869.66
2022-10-15T12:27:19.058Z,99865.47
2022-10-15T12:29:50.920Z,99868.72
2022-10-15T12:32:28.338Z,99864.66
2022-10-15T12:35:02.590Z,99870.41
2022-10-15T12:37:32.705Z,99870.97
2022-10-15T12:40:05.895Z,99872.56
2022-10-15T12:42:37.254Z,99870.56
2022-10-15T12:45:06.668Z,99865.38
2022-10-15T12:47:54.201Z,99855.31
2022-10-15T12:50:28.516Z,99861.31
2022-10-15T12:52:58.911Z,99851.31
2022-10-15T12:55:38.744Z,99855.97
2022-10-15T12:58:16.737Z,99855.84
2022-10-15T13:00:44.236Z,99844.16
2022-10-15T13:03:22.441Z,99851.91
2022-10-15T13:05:53.110Z,99847.53
2022-10-15T13:08:31.814Z,99856.94
2022-10-15T13:10:59.657Z,99856.34
2022-10-15T13:13:29.493Z,99860.47
2022-10-15T13:16:09.914Z,99860.03
2022-10-15T13:18:37.492Z,99861.84
2022-10-15T13:21:05.994Z,99864.53
2022-10-15T13:23:35.389Z,99864.25
2022-10-15T13:26:23.725Z,99865.22
2022-10-15T13:28:52.674Z,99864.72
2022-10-15T13:31:30.348Z,99867.62
2022-10-15T13:34:01.502Z,99856.44
2022-10-15T13:36:33.259Z,99860.31
2022-10-15T13:39:06.631Z,99861.63
2022-10-15T13:41:38.176Z,99862.97
2022-10-15T13:44:05.759Z,99860.09
2022-10-15T13:46:36.531Z,99857.19
2022-10-15T13:49:12.532Z,99867.66
2022-10-15T13:51:41.953Z,99873.06
2022-10-15T13:54:12.174Z,99875.88
2022-10-15T13:56:46.381Z,99874.34
2022-10-15T13:59:17.186Z,99866.13
2022-10-15T14:01:48.888Z,99869.19
2022-10-15T14:04:22.160Z,99865.91
2022-10-15T14:07:03.790Z,99866.72
2022-10-15T14:09:33.135Z,99868.25
2022-10-15T14:12:03.122Z,99867.56
2022-10-15T14:14:32.055Z,99869.34
2022-10-15T14:17:01.348Z,99857.25
2022-10-15T14:19:30.084Z,99864.63
2022-10-15T14:21:57.898Z,99865.78
2022-10-15T14:24:36.144Z,99879.81
2022-10-15T14:27:17.654Z,99875.44
2022-10-15T14:29:46.065Z,99872.50
2022-10-15T14:32:43.034Z,99862.59
2022-10-15T14:35:35.969Z,99860.06
2022-10-15T14:38:16.375Z,99859.34
2022-10-15T14:41:28.634Z,99855.53
2022-10-15T14:44:20.401Z,99853.56
2022-10-15T14:46:49.610Z,99844.56
2022-10-15T14:49:21.984Z,99851.78
2022-10-15T14:51:54.439Z,99860.62
2022-10-15T14:54:24.559Z,99861.25
2022-10-15T14:56:52.169Z,99858.56
2022-10-15T14:59:20.006Z,99863.16
2022-10-15T15:01:52.660Z,99865.22
2022-10-15T15:04:38.138Z,99866.44
2022-10-15T15:07:20.078Z,99862.00
2022-10-15T15:09:48.254Z,99865.75
2022-10-15T15:12:18.470Z,99869.56
2022-10-15T15:14:45.817Z,99866.56
2022-10-15T15:17:23.989Z,99869.03
2022-10-15T15:19:52.155Z,99880.13
2022-10-15T15:22:28.243Z,99884.16
2022-10-15T15:24:56.702Z,99877.91
2022-10-15T15:27:28.309Z,99881.91
2022-10-15T15:29:55.718Z,99879.47
2022-10-15T15:32:23.532Z,99885.06
2022-10-15T15:34:52.326Z,99884.69
2022-10-15T15:37:21.409Z,99888.06
2022-10-15T15:39:49.106Z,99888.06
2022-10-15T15:42:21.646Z,99884.53
2022-10-15T15:44:49.188Z,99890.66
2022-10-15T15:47:17.000Z,99888.81
2022-10-15T15:49:44.369Z,99899.44
2022-10-15T15:52:13.942Z,99895.84
2022-10-15T15:54:41.617Z,99898.09
2022-10-15T15:57:09.150Z,99901.91
2022-10-15T15:59:36.514Z,99903.16
2022-10-15T16:02:04.184Z,99902.84
2022-10-15T16:04:31.830Z,99905.97
2022-10-15T16:06:59.145Z,99905.53
2022-10-15T16:09:26.684Z,99914.50
2022-10-15T16:11:54.308Z,99910.69
2022-10-15T16:14:21.676Z,99911.81
2022-10-15T16:16:49.025Z,99917.78
2022-10-15T16:19:16.653Z,99909.19
2022-10-15T16:21:43.949Z,99920.34
2022-10-15T16:24:11.240Z,99923.94
2022-10-15T16:26:38.855Z,99930.75
2022-10-15T16:29:06.178Z,99934.03
2022-10-15T16:31:36.588Z,99936.12
2022-10-15T16:34:04.665Z,99930.72
2022-10-15T16:36:32.127Z,99936.38
2022-10-15T16:38:59.482Z,99938.06
2022-10-15T16:41:27.124Z,99943.25
2022-10-15T16:43:54.462Z,99943.72
2022-10-15T16:46:21.804Z,99953.75
2022-10-15T16:48:53.850Z,99959.28
2022-10-15T16:51:21.375Z,99955.75
2022-10-15T16:53:50.260Z,99969.19
2022-10-15T16:56:25.072Z,99971.88
2022-10-15T16:58:52.776Z,99963.44
2022-10-15T17:01:22.700Z,99967.47
2022-10-15T17:03:50.072Z,99969.28
2022-10-15T17:06:21.041Z,99981.81
2022-10-15T17:08:52.616Z,99979.78
2022-10-15T17:11:21.758Z,99983.03
2022-10-15T17:13:50.452Z,99983.75
2022-10-15T17:16:22.685Z,99984.72
2022-10-15T17:21:25.225Z,99988.53
2022-10-15T17:23:57.538Z,99990.56
2022-10-15T17:26:27.037Z,99987.84
2022-10-15T17:28:54.701Z,99986.09
2022-10-15T17:31:23.442Z,99988.66
2022-10-15T17:33:57.784Z,99995.75
2022-10-15T17:36:25.541Z,99994.91
2022-10-15T17:38:55.203Z,99996.78
2022-10-15T17:41:23.233Z,99997.59
2022-10-15T17:43:51.008Z,100000.03
2022-10-15T17:46:20.136Z,100004.41
2022-10-15T17:48:47.685Z,100011.44
2022-10-15T17:51:16.995Z,100019.25
2022-10-15T17:53:44.337Z,100012.66
2022-10-15T17:56:21.472Z,100021.59
2022-10-15T17:58:50.117Z,100014.53
2022-10-15T18:01:28.070Z,100012.28
2022-10-15T18:04:01.272Z,100011.03
2022-10-15T18:06:28.631Z,100018.69
2022-10-15T18:08:56.018Z,100015.81
2022-10-15T18:11:26.517Z,100016.59
2022-10-15T18:13:53.886Z,100023.66
2022-10-15T18:16:21.486Z,100018.91
2022-10-15T18:18:49.177Z,100024.91
2022-10-15T18:21:17.309Z,100026.16
2022-10-15T18:23:44.648Z,100037.72
2022-10-15T18:26:18.705Z,100030.69
2022-10-15T18:28:48.021Z,100032.91
2022-10-15T18:31:15.729Z,100033.09
2022-10-15T18:33:43.795Z,100039.78
2022-10-15T18:36:13.748Z,100048.88
2022-10-15T18:38:43.497Z,100044.75
2022-10-15T18:41:17.030Z,100044.97
2022-10-15T18:43:44.796Z,100054.69
2022-10-15T18:46:12.145Z,100048.50
2022-10-15T18:48:39.520Z,100053.47
2022-10-15T18:51:10.005Z,100047.88
2022-10-15T18:53:38.069Z,100047.25
2022-10-15T18:56:06.280Z,100041.44
2022-10-15T18:58:33.972Z,100040.84
2022-10-15T19:01:27.391Z,100039.19
2022-10-15T19:03:55.810Z,100041.44
2022-10-15T19:06:24.960Z,100049.31
2022-10-15T19:08:53.709Z,100054.03
2022-10-15T19:11:21.332Z,100055.53
2022-10-15T19:13:49.330Z,100060.47
2022-10-15T19:16:16.690Z,100054.69
2022-10-15T19:18:45.038Z,100063.16
2022-10-15T19:21:12.343Z,100064.41
2022-10-15T19:23:39.740Z,100066.44
2022-10-15T19:26:10.876Z,100056.72
2022-10-15T19:28:38.314Z,100054.03
2022-10-15T19:31:06.903Z,100062.09
2022-10-15T19:33:36.593Z,100068.75
2022-10-15T19:36:04.163Z,100078.25
2022-10-15T19:38:31.596Z,100084.47
2022-10-15T19:41:01.962Z,100087.78
2022-10-15T19:43:29.280Z,100089.00
2022-10-15T19:45:56.637Z,100083.22
2022-10-15T19:48:24.802Z,100083.22
2022-10-15T19:50:52.124Z,100085.91
2022-10-15T19:53:19.505Z,100086.53
2022-10-15T19:55:55.529Z,100095.00
2022-10-15T19:58:22.899Z,100091.50
2022-10-15T20:00:51.221Z,100101.19
2022-10-15T20:03:19.096Z,100107.19
2022-10-15T20:05:46.479Z,100108.22
2022-10-15T20:08:13.907Z,100111.97
2022-10-15T20:10:45.004Z,100113.41
2022-10-15T20:13:13.249Z,100111.97
2022-10-15T20:15:42.238Z,100109.66
2022-10-15T20:18:09.647Z,100113.00
2022-10-15T20:20:37.830Z,100112.59
2022-10-15T20:23:05.439Z,100121.22
2022-10-15T20:25:32.755Z,100127.88
2022-10-15T20:28:00.093Z,100120.81
2022-10-15T20:30:27.670Z,100121.66
2022-10-15T20:32:54.996Z,100114.22
2022-10-15T20:35:22.402Z,100132.84
2022-10-15T20:37:50.019Z,100124.97
2022-10-15T20:40:17.345Z,100131.78
2022-10-15T20:42:44.652Z,100130.34
2022-10-15T20:45:16.193Z,100142.53
2022-10-15T20:47:48.674Z,100144.59
2022-10-15T20:50:18.567Z,100146.69
2022-10-15T20:52:45.862Z,100145.22
2022-10-15T20:55:13.286Z,100148.34
2022-10-15T20:57:41.006Z,100151.03
2022-10-15T21:00:09.078Z,100146.25
2022-10-15T21:02:36.483Z,100151.84
2022-10-15T21:05:04.177Z,100146.47
2022-10-15T21:07:31.506Z,100145.22
2022-10-15T21:09:58.898Z,100149.75
2022-10-15T21:12:27.419Z,100143.97
2022-10-15T21:14:54.957Z,100145.81
2022-10-15T21:17:22.525Z,100151.84
2022-10-15T21:19:52.716Z,100152.25
2022-10-15T21:22:20.611Z,100149.75
2022-10-15T21:24:47.915Z,100161.34
2022-10-15T21:27:15.538Z,100146.47
2022-10-15T21:29:44.960Z,100148.72
2022-10-15T21:32:12.365Z,100145.00
2022-10-15T21:37:12.434Z,100141.28
2022-10-15T21:39:40.015Z,100146.47
2022-10-15T21:42:07.343Z,100136.50
2022-10-15T21:44:34.648Z,100140.25
2022-10-15T21:47:02.252Z,100143.16
2022-10-15T21:49:29.643Z,100148.56
2022-10-15T21:51:56.968Z,100156.38
2022-10-15T21:54:24.563Z,100162.19
2022-10-15T21:56:51.885Z,100159.28
2022-10-15T21:59:19.339Z,100155.37
2022-10-15T22:01:46.989Z,100162.78
2022-10-15T22:04:14.644Z,100165.72
2022-10-15T22:06:42.196Z,100168.59
2022-10-15T22:09:10.131Z,100175.03
2022-10-15T22:11:39.431Z,100185.97
2022-10-15T22:14:08.341Z,100177.88
2022-10-15T22:16:36.473Z,100171.66
2022-10-15T22:19:04.504Z,100176.22
2022-10-15T22:21:33.368Z,100176.88
2022-10-15T22:24:02.258Z,100177.91
2022-10-15T22:26:31.980Z,100180.16
2022-10-15T22:29:00.487Z,100180.16
2022-10-15T22:31:27.957Z,100177.09
2022-10-15T22:33:55.701Z,100189.47
2022-10-15T22:36:24.175Z,100179.16
2022-10-15T22:41:36.622Z,100179.13
2022-10-15T22:44:04.027Z,100187.62
2022-10-15T22:46:35.905Z,100185.75
2022-10-15T22:49:03.516Z,100191.53
2022-10-15T22:51:30.891Z,100192.38
2022-10-15T22:53:58.583Z,100198.56
2022-10-15T22:56:26.123Z,100201.06
2022-10-15T22:58:54.558Z,100193.19
2022-10-15T23:01:24.055Z,100198.16
2022-10-15T23:03:52.890Z,100198.97
2022-10-15T23:06:20.259Z,100206.63
2022-10-15T23:08:48.148Z,100208.91
2022-10-15T23:11:20.371Z,100204.78
2022-10-15T23:13:48.467Z,100205.59
2022-10-15T23:16:20.503Z,100197.75
2022-10-15T23:18:51.362Z,100203.50
2022-10-15T23:21:20.434Z,100208.69
2022-10-15T23:23:48.094Z,100207.25
2022-10-15T23:26:16.109Z,100210.34
2022-10-15T23:28:44.160Z,100210.97
2022-10-15T23:31:19.161Z,100221.72
2022-10-15T23:33:46.556Z,100216.75
2022-10-15T23:36:14.200Z,100218.22
2022-10-15T23:38:41.600Z,100215.31
2022-10-15T23:41:09.673Z,100224.59
2022-10-15T23:43:37.350Z,100220.66
2022-10-15T23:46:04.763Z,100224.59
2022-10-15T23:48:32.088Z,100227.28
2022-10-15T23:51:03.323Z,100228.53
2022-10-15T23:53:32.644Z,100229.12
2022-10-15T23:56:02.573Z,100230.53
2022-10-15T23:58:32.049Z,100235.16
